Kyburz, California
Current Conditions -  °F | °C
As of 4:53 AM on Thursday 18 Dec 2014 (Local Time) from KTVL Reporting Station
Broken Clouds Broken Clouds  
Wind Chill: 30°   Ceiling: 3600
Heat Index: 30°   Visibility: 10mi
Dew Point: 23°   Wind: 0mph
Humidity: 75%   Direction: NA
Pressure: 30.06"   Gusts: NA
Location:  38.77°N, 120.3°W
Report Text: KTVL 181253Z AUTO 00000KT 10SM BKN036 M01/M05 A3006 RMK AO2 SLP178 T10111050
Loading
Personal Weather Stations






























Interactive Weather Map New forecast layout! Learn more

10-Day Weather Forecast

Advertisements
Track Severe Weather on mobile